Monday, January 21, 2019, 10:38 PM GMT
Back to Local

CWIS, Charlevoix CS , Que.

Location: , , Canada Lat: 47.283
Local Time: 10:38 PM GMT (22:38 GMT) Lon: -70.633
Time Zone: GMT Elev: 2358 ft

Show me the last for .
Show Coded

Time T Td Feel RH Dir Speed Gust Alt SLP Vis Weather Sky Remarks
2019-01-21 22:00 -2 -7 -25 77 360° 10 20 - 29.72 0 Peak wind: 21 mph (19 kts) from 0° at 22 min
2019-01-21 20:00 -3 -8 -26 79 360° 10 20 - 29.65 0 Peak wind: 23 mph (20 kts) from 10° at 13 min
2019-01-21 19:00 -4 -8 -27 80 360° 10 20 - 29.64 0 Peak wind: 21 mph (19 kts) from 330° at 37 min
2019-01-21 18:00 -3 -7 -18 79 350° 8 - - 29.62 0 None
2019-01-21 17:00 -4 -8 -19 81 10° 8 - - 29.60 0 None
2019-01-21 16:00 -5 -9 -18 80 340° 6 - - 29.61 0 None
2019-01-21 15:00 -8 -12 -19 79 320° 5 - - 29.61 0 1-hr Precip Total: 0.02"
2019-01-21 14:00 -8 -12 -19 80 350° 5 - - 29.58 0 None
2019-01-21 13:00 -8 -10 -19 89 330° 5 - - 29.56 0 None
2019-01-21 12:00 -9 -13 -22 81 330° 6 - - 29.55 0 None
2019-01-21 11:00 -7 -10 -18 82 340° 5 - - 29.54 0 None
2019-01-21 10:00 -6 -10 -19 83 350° 6 - - 29.53 0 Peak wind: 20 mph (18 kts) from 0° at 01 min
2019-01-21 09:00 -5 -7 -28 90 10° 9 20 - 29.52 0 Peak wind: 19 mph (17 kts) from 10° at 59 min
2019-01-21 08:00 -4 -7 -26 84 10° 8 17 - 29.54 0 Peak wind: 23 mph (20 kts) from 10° at 08 min
1-hr Precip Total: 0.03"
2019-01-21 06:00 -4 -7 -30 83 20° 14 28 - 29.52 0 Peak wind: 27 mph (24 kts) from 10° at 51 min
2019-01-21 05:00 -3 -6 -28 84 20° 15 25 - 29.54 0 Peak wind: 31 mph (27 kts) from 40° at 06 min
2019-01-21 04:00 -3 -6 -29 85 30° 20 29 - 29.53 0 Peak wind: 31 mph (27 kts) from 20° at 21 min
2019-01-21 03:00 -1 -5 -28 86 30° 18 31 - 29.54 0 Peak wind: 34 mph (30 kts) from 20° at 13 min
2019-01-21 02:00 -1 -4 -27 86 30° 20 31 - 29.56 0 Peak wind: 32 mph (28 kts) from 30° at 34 min
1-hr Precip Total: 0.03"
2019-01-21 01:00 -1 -3 -28 87 30° 18 33 - 29.57 0 Peak wind: 34 mph (30 kts) from 40° at 09 min
2019-01-21 00:00 -1 -4 -28 86 30° 21 33 - 29.58 0 Peak wind: 36 mph (32 kts) from 20° at 06 min
1-hr Precip Total: 0.03"
2019-01-20 23:00 -3 -6 -30 85 40° 21 32 - 29.64 0 Peak wind: 35 mph (31 kts) from 20° at 22 min
1-hr Precip Total: 0.04"

Support USWX by starting your Amazon purchase here.